Time;durP1;ratioP1;P1;durP2;ratioP2;P2;SDS_P1;SDS_P2;PMS_P1;PMS_P2;Temp;Humidity;BMP_temperature;BMP_pressure;BME280_temperature;BME280_humidity;BME280_pressure;Samples;Min_cycle;Max_cycle;Signal;HPM_P1;HPM_P2
2023/08/15 00:00:53;;;;;;;0.55;0.55;;;;;;;18.73;100.00;100170.50;4795954;29;20504;-94
2023/08/15 00:03:19;;;;;;;1.63;0.77;;;;;;;18.50;100.00;100146.91;4785883;29;20051;-93
2023/08/15 00:05:44;;;;;;;0.75;0.63;;;;;;;18.28;100.00;100136.13;4785699;29;20053;-93
2023/08/15 00:08:10;;;;;;;0.93;0.93;;;;;;;18.43;100.00;100173.38;4783380;29;20049;-92
2023/08/15 00:10:35;;;;;;;0.57;0.57;;;;;;;18.29;100.00;100160.13;4787391;29;20039;-93
2023/08/15 00:13:03;;;;;;;0.85;0.85;;;;;;;18.46;100.00;100177.25;4784071;29;20035;-93
2023/08/15 00:15:30;;;;;;;1.55;1.27;;;;;;;18.45;100.00;100181.31;4768487;29;20043;-92
2023/08/15 00:17:56;;;;;;;2.88;1.42;;;;;;;18.42;100.00;100177.44;4788830;29;20098;-94
2023/08/15 00:20:21;;;;;;;3.38;1.90;;;;;;;18.23;100.00;100138.84;4772880;29;20082;-93
2023/08/15 00:22:47;;;;;;;1.00;0.90;;;;;;;18.04;100.00;100124.25;4785518;29;20400;-89
2023/08/15 00:25:13;;;;;;;0.35;0.30;;;;;;;17.97;100.00;100113.44;4775926;29;20421;-89
2023/08/15 00:27:38;;;;;;;3.90;1.15;;;;;;;18.10;100.00;100141.97;4770325;29;20043;-89
2023/08/15 00:30:05;;;;;;;0.25;0.25;;;;;;;17.95;100.00;100118.78;4778567;29;20470;-89
2023/08/15 00:32:35;;;;;;;0.47;0.47;;;;;;;18.14;100.00;100153.78;4765474;29;20063;-89
2023/08/15 00:35:03;;;;;;;1.08;0.98;;;;;;;18.03;100.00;100122.72;4783818;29;20035;-89
2023/08/15 00:37:29;;;;;;;1.88;1.75;;;;;;;18.14;100.00;100139.75;4784118;29;20123;-93
2023/08/15 00:39:55;;;;;;;1.23;1.20;;;;;;;18.28;100.00;100167.00;4764969;30;20538;-92
2023/08/15 00:42:20;;;;;;;1.85;1.75;;;;;;;18.27;100.00;100164.69;4769116;29;20034;-93
2023/08/15 00:44:46;;;;;;;6.28;1.02;;;;;;;18.04;100.00;100135.47;4770489;29;20076;-93
2023/08/15 00:47:13;;;;;;;0.52;0.50;;;;;;;18.04;100.00;100147.47;4797631;29;20145;-93
2023/08/15 00:49:42;;;;;;;1.30;1.20;;;;;;;18.10;100.00;100161.63;4783500;29;20046;-89
2023/08/15 00:52:08;;;;;;;1.88;1.20;;;;;;;18.12;100.00;100164.69;4786062;29;20430;-88
2023/08/15 00:54:34;;;;;;;1.23;0.95;;;;;;;18.05;100.00;100159.50;4772350;29;20049;-89
2023/08/15 00:57:04;;;;;;;2.33;1.00;;;;;;;17.97;100.00;100147.09;4772052;29;20043;-88
2023/08/15 00:59:29;;;;;;;0.85;0.40;;;;;;;17.71;100.00;100111.22;4783635;29;20051;-90
2023/08/15 01:01:55;;;;;;;1.80;1.20;;;;;;;17.98;100.00;100145.84;5083951;24;20070;-90
2023/08/15 01:04:21;;;;;;;1.25;1.15;;;;;;;18.04;100.00;100169.16;4814390;29;20046;-91
2023/08/15 01:06:48;;;;;;;1.40;1.00;;;;;;;17.96;100.00;100156.78;4810131;29;20505;-91
2023/08/15 01:09:14;;;;;;;0.73;0.73;;;;;;;17.91;100.00;100161.06;4824270;29;20049;-90
2023/08/15 01:11:57;;;;;;;2.20;1.55;;;;;;;17.93;100.00;100158.53;4821569;29;20060;-90
2023/08/15 01:14:29;;;;;;;1.02;0.85;;;;;;;17.86;100.00;100152.53;4836697;29;20157;-90
2023/08/15 01:16:55;;;;;;;0.70;0.70;;;;;;;17.86;100.00;100144.13;4825744;29;20049;-90
2023/08/15 01:19:43;;;;;;;0.65;0.65;;;;;;;17.81;100.00;100151.19;4821272;29;20133;-91
2023/08/15 01:22:19;;;;;;;0.40;0.40;;;;;;;17.81;100.00;100136.38;4823608;29;20137;-91
2023/08/15 01:24:45;;;;;;;0.88;0.82;;;;;;;17.84;100.00;100153.00;4835750;29;20046;-90
2023/08/15 01:27:11;;;;;;;0.50;0.50;;;;;;;17.77;100.00;100144.22;4825108;29;20041;-91
2023/08/15 01:29:36;;;;;;;1.65;1.02;;;;;;;17.78;100.00;100145.78;4838264;29;20406;-90
2023/08/15 01:32:10;;;;;;;1.27;1.05;;;;;;;17.77;100.00;100156.22;4839163;29;20037;-91
2023/08/15 01:35:03;;;;;;;1.30;1.20;;;;;;;17.65;100.00;100123.63;4821030;29;20041;-91
2023/08/15 01:37:29;;;;;;;1.13;1.10;;;;;;;17.74;100.00;100150.81;4820926;29;20042;-90
2023/08/15 01:39:56;;;;;;;0.90;0.85;;;;;;;17.74;100.00;100150.81;4821832;29;20049;-91
2023/08/15 01:42:23;;;;;;;1.02;0.93;;;;;;;17.64;100.00;100152.91;4820940;29;20308;-91
2023/08/15 01:44:50;;;;;;;0.45;0.43;;;;;;;17.59;100.00;100140.34;4807615;29;20053;-92
2023/08/15 01:47:16;;;;;;;0.38;0.38;;;;;;;17.63;100.00;100143.72;4820370;29;20052;-90
2023/08/15 01:49:41;;;;;;;0.63;0.63;;;;;;;17.64;100.00;100150.88;4820390;29;20424;-91
2023/08/15 01:52:07;;;;;;;0.80;0.80;;;;;;;17.57;100.00;100142.88;4818026;29;20054;-90
2023/08/15 01:54:33;;;;;;;1.30;1.02;;;;;;;17.49;100.00;100146.50;4834523;29;20414;-91
2023/08/15 01:56:58;;;;;;;1.70;1.15;;;;;;;17.31;100.00;100124.25;4824034;29;20042;-91
2023/08/15 01:59:24;;;;;;;1.27;0.98;;;;;;;17.26;100.00;100125.69;4839595;29;20045;-91
2023/08/15 02:01:49;;;;;;;2.00;1.13;;;;;;;17.43;100.00;100145.63;4816003;29;20449;-91
2023/08/15 02:04:15;;;;;;;0.70;0.70;;;;;;;17.43;100.00;100142.81;4824022;29;20041;-90
2023/08/15 02:06:41;;;;;;;1.17;1.08;;;;;;;17.31;100.00;100130.59;4822613;29;20061;-91
2023/08/15 02:09:07;;;;;;;0.90;0.85;;;;;;;17.24;100.00;100136.59;4846374;29;20050;-91
2023/08/15 02:11:34;;;;;;;0.82;0.82;;;;;;;17.28;100.00;100134.38;4823775;29;20075;-91
2023/08/15 02:13:59;;;;;;;1.23;1.08;;;;;;;17.18;100.00;100122.47;4826414;29;20506;-91
2023/08/15 02:16:25;;;;;;;1.13;0.98;;;;;;;17.17;100.00;100131.38;4839396;29;20049;-91
2023/08/15 02:18:51;;;;;;;1.23;1.05;;;;;;;17.13;100.00;100119.56;4809768;29;20129;-90
2023/08/15 02:21:16;;;;;;;1.15;0.73;;;;;;;17.04;100.00;100112.00;4836839;29;20117;-91
2023/08/15 02:23:42;;;;;;;0.70;0.68;;;;;;;16.98;100.00;100110.34;4810310;29;20473;-90
2023/08/15 02:26:07;;;;;;;0.68;0.57;;;;;;;16.95;100.00;100117.66;4810420;29;20045;-91
2023/08/15 02:28:33;;;;;;;1.33;1.23;;;;;;;16.96;100.00;100108.03;4823097;29;20414;-91
2023/08/15 02:30:58;;;;;;;0.50;0.50;;;;;;;17.04;100.00;100103.59;4822452;29;20110;-92
2023/08/15 02:33:24;;;;;;;1.33;1.23;;;;;;;17.01;100.00;100117.78;4831805;29;20053;-92
2023/08/15 02:35:51;;;;;;;1.13;0.75;;;;;;;17.04;100.00;100122.44;4805160;29;20202;-92
2023/08/15 02:38:16;;;;;;;1.30;1.20;;;;;;;17.03;100.00;100116.06;4840503;29;20037;-90
2023/08/15 02:40:43;;;;;;;0.68;0.68;;;;;;;16.93;100.00;100108.22;4839744;29;20038;-91
2023/08/15 02:43:08;;;;;;;1.70;1.25;;;;;;;16.99;100.00;100123.88;4825355;29;20064;-91
2023/08/15 02:45:34;;;;;;;0.98;0.77;;;;;;;17.01;100.00;100124.19;4821347;29;20080;-91
2023/08/15 02:48:00;;;;;;;1.42;1.02;;;;;;;16.93;100.00;100113.81;4819644;29;20522;-90
2023/08/15 02:50:26;;;;;;;1.38;0.75;;;;;;;16.90;100.00;100103.56;4804645;29;20061;-91
2023/08/15 02:52:51;;;;;;;1.15;1.13;;;;;;;17.05;100.00;100129.59;4821620;29;20048;-90
2023/08/15 02:55:17;;;;;;;1.00;1.00;;;;;;;16.97;100.00;100125.59;4822080;29;20056;-91
2023/08/15 02:57:42;;;;;;;1.55;0.68;;;;;;;17.06;100.00;100131.16;4813733;29;20561;-91
2023/08/15 03:00:09;;;;;;;1.10;0.82;;;;;;;17.06;100.00;100114.34;4817478;29;20113;-90
2023/08/15 03:02:35;;;;;;;0.90;0.90;;;;;;;17.19;100.00;100134.44;4838899;29;20040;-92
2023/08/15 03:05:00;;;;;;;1.33;1.02;;;;;;;17.06;100.00;100119.94;4857287;29;20049;-92
2023/08/15 03:07:26;;;;;;;0.77;0.77;;;;;;;17.15;100.00;100131.06;4852638;29;20055;-93
2023/08/15 03:09:52;;;;;;;0.77;0.73;;;;;;;17.13;100.00;100142.75;4855909;29;20037;-92
2023/08/15 03:12:17;;;;;;;1.60;1.08;;;;;;;17.08;100.00;100137.03;4852980;29;20048;-91
2023/08/15 03:15:16;;;;;;;2.00;1.38;;;;;;;16.89;100.00;100116.03;4855339;29;20093;-91
2023/08/15 03:17:41;;;;;;;0.60;0.60;;;;;;;16.92;100.00;100124.25;4857521;29;20053;-91
2023/08/15 03:20:09;;;;;;;0.68;0.68;;;;;;;16.87;100.00;100121.31;4856386;29;20462;-90
2023/08/15 03:22:34;;;;;;;3.63;1.30;;;;;;;16.87;100.00;100136.09;4871550;29;20584;-92
2023/08/15 03:25:00;;;;;;;1.40;0.98;;;;;;;16.81;100.00;100120.44;4872888;29;20053;-90
2023/08/15 03:27:27;;;;;;;0.80;0.80;;;;;;;16.90;100.00;100140.00;4854248;29;20113;-90
2023/08/15 03:29:53;;;;;;;0.85;0.85;;;;;;;16.87;100.00;100138.13;4860412;29;20041;-92
2023/08/15 03:32:19;;;;;;;1.45;1.35;;;;;;;16.68;100.00;100124.25;4872189;29;20048;-91
2023/08/15 03:34:45;;;;;;;0.77;0.77;;;;;;;16.77;100.00;100127.00;4855718;29;20446;-92
2023/08/15 03:37:10;;;;;;;1.90;1.75;;;;;;;16.82;100.00;100141.59;4854658;29;20053;-94
2023/08/15 03:39:36;;;;;;;0.63;0.63;;;;;;;16.88;100.00;100142.47;4855984;29;20085;-92
2023/08/15 03:42:01;;;;;;;1.17;1.08;;;;;;;16.78;100.00;100139.72;4856938;29;20190;-92
2023/08/15 03:44:27;;;;;;;0.57;0.55;;;;;;;16.78;100.00;100128.53;4868153;29;20045;-91
2023/08/15 03:46:52;;;;;;;2.33;1.13;;;;;;;16.81;100.00;100123.25;4858931;29;20041;-90
2023/08/15 03:49:18;;;;;;;0.90;0.90;;;;;;;16.94;100.00;100157.41;4867727;29;20513;-90
2023/08/15 03:51:44;;;;;;;0.85;0.85;;;;;;;16.70;100.00;100123.78;4873231;29;20037;-90
2023/08/15 03:54:10;;;;;;;0.93;0.82;;;;;;;16.72;100.00;100135.28;4845914;29;20442;-90
2023/08/15 03:56:35;;;;;;;1.02;1.00;;;;;;;16.86;100.00;100156.22;4872802;29;20045;-90
2023/08/15 03:59:01;;;;;;;1.48;1.25;;;;;;;16.87;100.00;100161.31;4860115;29;20463;-91
2023/08/15 04:01:27;;;;;;;1.95;1.38;;;;;;;16.94;100.00;100174.22;4842412;29;20041;-91
2023/08/15 04:03:53;;;;;;;0.38;0.38;;;;;;;16.66;100.00;100137.19;4854488;29;20132;-90
2023/08/15 04:06:18;;;;;;;1.67;1.17;;;;;;;16.68;100.00;100143.84;4872902;29;20076;-91
2023/08/15 04:08:45;;;;;;;0.43;0.43;;;;;;;16.58;100.00;100139.56;4865831;29;20087;-90
2023/08/15 04:11:11;;;;;;;1.20;0.88;;;;;;;16.79;100.00;100177.72;4838428;29;20048;-91
2023/08/15 04:13:36;;;;;;;1.38;1.23;;;;;;;16.75;100.00;100163.09;4872154;29;20421;-90
2023/08/15 04:16:02;;;;;;;0.85;0.85;;;;;;;16.85;100.00;100174.25;4853247;29;20521;-90
2023/08/15 04:18:28;;;;;;;1.88;1.38;;;;;;;16.78;100.00;100158.59;4848930;29;20141;-91
2023/08/15 04:20:53;;;;;;;1.95;1.17;;;;;;;16.79;100.00;100174.91;4857722;29;20060;-92
2023/08/15 04:23:20;;;;;;;1.85;1.27;;;;;;;16.72;100.00;100157.69;4860305;29;20607;-91
2023/08/15 04:25:48;;;;;;;1.27;1.17;;;;;;;16.77;100.00;100166.22;4874173;29;20474;-91
2023/08/15 04:28:14;;;;;;;0.85;0.85;;;;;;;16.84;100.00;100175.50;4860074;29;20053;-91
2023/08/15 04:30:41;;;;;;;3.25;2.60;;;;;;;16.84;100.00;100164.28;4871712;29;20060;-91
2023/08/15 04:33:07;;;;;;;0.95;0.93;;;;;;;16.92;100.00;100171.09;4855796;29;20133;-92
2023/08/15 04:35:33;;;;;;;1.23;1.13;;;;;;;16.84;100.00;100161.50;4856820;29;20042;-90
2023/08/15 04:37:59;;;;;;;2.45;1.33;;;;;;;16.81;100.00;100154.06;4854932;29;20431;-90
2023/08/15 04:40:40;;;;;;;1.58;1.48;;;;;;;16.90;100.00;100168.78;4844682;29;20056;-91
2023/08/15 04:43:07;;;;;;;1.58;1.48;;;;;;;16.93;100.00;100155.84;4872211;29;20033;-92
2023/08/15 04:45:33;;;;;;;1.15;1.05;;;;;;;17.03;100.00;100176.94;4873853;29;20056;-90
2023/08/15 04:47:58;;;;;;;1.02;0.88;;;;;;;16.92;100.00;100149.47;4846176;29;20040;-92
2023/08/15 04:50:24;;;;;;;0.82;0.80;;;;;;;17.15;100.00;100173.09;4854758;29;20454;-92
2023/08/15 04:52:50;;;;;;;1.58;1.48;;;;;;;17.16;100.00;100174.66;4868191;29;20044;-91
2023/08/15 04:55:18;;;;;;;0.73;0.73;;;;;;;17.09;100.00;100158.22;4857132;29;20409;-92
2023/08/15 04:57:43;;;;;;;1.20;1.10;;;;;;;17.22;100.00;100178.34;4870919;29;20042;-92
2023/08/15 05:00:11;;;;;;;1.45;1.35;;;;;;;17.25;100.00;100178.16;4863452;29;20053;-92
2023/08/15 05:02:38;;;;;;;1.27;1.17;;;;;;;17.33;100.00;100160.97;4865155;29;20041;-92
2023/08/15 05:05:06;;;;;;;1.83;1.00;;;;;;;17.41;100.00;100174.13;4866542;29;20069;-91
2023/08/15 05:07:32;;;;;;;0.40;0.40;;;;;;;17.46;100.00;100170.69;4837164;29;20044;-91
2023/08/15 05:09:58;;;;;;;2.20;1.35;;;;;;;17.60;100.00;100183.97;4870527;29;20517;-91
2023/08/15 05:12:24;;;;;;;2.33;1.52;;;;;;;17.61;100.00;100154.66;4837596;29;20112;-93
2023/08/15 05:14:50;;;;;;;1.55;1.40;;;;;;;17.85;100.00;100173.44;4843512;29;20043;-92
2023/08/15 05:17:15;;;;;;;0.80;0.75;;;;;;;17.97;100.00;100180.78;4857123;29;20361;-92
2023/08/15 05:19:41;;;;;;;1.17;1.05;;;;;;;18.05;100.00;100187.56;4857506;29;20613;-92
2023/08/15 05:22:07;;;;;;;1.10;1.02;;;;;;;18.10;100.00;100175.66;4851383;29;20034;-92
2023/08/15 05:24:32;;;;;;;1.63;1.52;;;;;;;18.31;100.00;100182.91;4866770;29;20049;-93
2023/08/15 05:26:58;;;;;;;1.30;1.20;;;;;;;18.61;100.00;100190.00;4855084;29;20151;-93
2023/08/15 05:29:25;;;;;;;1.15;1.10;;;;;;;18.73;100.00;100162.84;4839309;29;20410;-93
2023/08/15 05:31:51;;;;;;;2.15;1.83;;;;;;;19.26;100.00;100185.00;4860617;29;20052;-93
2023/08/15 05:34:16;;;;;;;1.52;1.42;;;;;;;19.57;100.00;100192.81;4847584;29;20079;-91
2023/08/15 05:36:42;;;;;;;1.40;1.00;;;;;;;19.69;100.00;100193.69;4848005;29;20098;-92
2023/08/15 05:39:08;;;;;;;1.25;0.90;;;;;;;19.78;100.00;100190.69;4848438;29;20073;-92
2023/08/15 05:41:33;;;;;;;1.13;1.02;;;;;;;19.87;100.00;100196.16;4863451;29;20632;-93
2023/08/15 05:43:59;;;;;;;1.63;1.52;;;;;;;20.02;100.00;100185.56;4871364;29;20414;-91
2023/08/15 05:46:24;;;;;;;1.40;1.30;;;;;;;20.07;100.00;100190.47;4857135;29;20120;-93
2023/08/15 05:48:50;;;;;;;2.33;1.75;;;;;;;20.22;100.00;100199.56;4842636;29;20051;-91
2023/08/15 05:51:15;;;;;;;1.23;1.13;;;;;;;20.46;100.00;100179.56;4870849;29;20581;-91
2023/08/15 05:53:41;;;;;;;1.13;0.85;;;;;;;20.56;100.00;100166.03;4869877;29;20059;-92
2023/08/15 05:56:06;;;;;;;1.88;1.67;;;;;;;20.93;100.00;100186.50;4873654;29;20080;-93
2023/08/15 05:58:32;;;;;;;1.27;0.95;;;;;;;21.20;100.00;100185.88;4860211;23;20333;-95
2023/08/15 06:00:58;;;;;;;3.75;2.03;;;;;;;21.43;100.00;100186.75;4770612;29;20525;-96
2023/08/15 06:03:24;;;;;;;1.77;1.13;;;;;;;21.66;100.00;100181.91;4764935;29;20093;-95
2023/08/15 06:05:49;;;;;;;1.23;1.13;;;;;;;;;;4786055;29;20133;-95
2023/08/15 06:08:15;;;;;;;2.10;1.35;;;;;;;21.77;100.00;100137.53;4784990;29;20051;-95
2023/08/15 06:10:40;;;;;;;2.65;1.92;;;;;;;22.29;100.00;100183.00;4769945;29;20043;-96
2023/08/15 06:13:08;;;;;;;3.65;1.42;;;;;;;22.46;100.00;100173.75;4774549;29;20053;-94
2023/08/15 06:15:34;;;;;;;0.98;0.82;;;;;;;22.48;100.00;100148.56;4772405;29;20035;-96
2023/08/15 06:17:59;;;;;;;1.10;1.02;;;;;;;22.74;100.00;100149.03;4782823;29;20053;-95
2023/08/15 06:20:25;;;;;;;0.40;0.40;;;;;;;23.18;100.00;100171.50;4765456;29;20150;-95
2023/08/15 06:22:50;;;;;;;1.45;1.17;;;;;;;23.37;100.00;100177.34;4777040;29;20050;-95
2023/08/15 06:25:16;;;;;;;1.27;1.15;;;;;;;23.55;100.00;100185.25;4787175;29;20055;-95
2023/08/15 06:27:42;;;;;;;0.82;0.70;;;;;;;23.80;100.00;100174.03;4770796;29;20259;-96
2023/08/15 06:30:08;;;;;;;0.93;0.93;;;;;;;24.05;100.00;100167.16;4785926;29;20054;-90
2023/08/15 06:32:33;;;;;;;1.08;0.73;;;;;;;24.36;100.00;100185.72;4763138;29;20486;-90
2023/08/15 06:35:00;;;;;;;1.67;1.45;;;;;;;24.49;100.00;100175.28;4786118;29;20050;-90
2023/08/15 06:37:25;;;;;;;1.45;1.15;;;;;;;24.75;100.00;100177.59;4786280;29;20054;-90
2023/08/15 06:39:51;;;;;;;1.42;1.33;;;;;;;24.98;100.00;100195.97;4786520;29;20050;-90
2023/08/15 06:42:20;;;;;;;1.08;0.90;;;;;;;25.05;100.00;100183.22;4763424;29;20139;-88
2023/08/15 06:44:45;;;;;;;2.65;1.65;;;;;;;25.27;96.46;100193.56;4796308;29;20158;-88
2023/08/15 06:47:11;;;;;;;0.85;0.75;;;;;;;25.29;92.89;100197.38;4802094;29;20111;-90
2023/08/15 06:49:37;;;;;;;0.93;0.93;;;;;;;24.96;93.45;100173.00;4800671;29;20062;-88
2023/08/15 06:52:03;;;;;;;1.30;1.20;;;;;;;25.16;94.33;100180.25;4771838;29;20043;-90
2023/08/15 06:54:29;;;;;;;0.75;0.75;;;;;;;25.41;94.20;100180.97;4767691;29;20056;-91
2023/08/15 06:56:54;;;;;;;1.92;0.93;;;;;;;25.40;93.87;100166.00;4776768;29;20483;-90
2023/08/15 06:59:23;;;;;;;0.70;0.70;;;;;;;25.53;94.62;100157.59;4780841;29;20104;-90
2023/08/15 07:01:52;;;;;;;1.23;1.13;;;;;;;25.39;92.39;100160.88;4774339;29;20062;-87
2023/08/15 07:04:17;;;;;;;1.23;1.13;;;;;;;25.47;95.97;100161.78;4801575;29;20047;-88
2023/08/15 07:06:43;;;;;;;1.45;1.30;;;;;;;25.50;93.13;100169.22;4794154;29;20069;-88
2023/08/15 07:09:14;;;;;;;0.68;0.68;;;;;;;25.88;92.31;100189.88;4798996;29;20047;-87
2023/08/15 07:11:40;;;;;;;1.23;0.93;;;;;;;25.96;91.08;100185.84;4767109;29;20038;-88
2023/08/15 07:14:06;;;;;;;1.17;1.08;;;;;;;25.86;91.39;100164.84;4801689;29;20500;-89
2023/08/15 07:16:31;;;;;;;0.75;0.75;;;;;;;26.24;91.09;100176.16;4782563;29;20532;-89
2023/08/15 07:18:57;;;;;;;1.35;0.80;;;;;;;26.36;89.67;100166.13;4799320;29;20059;-89
2023/08/15 07:21:23;;;;;;;1.60;1.50;;;;;;;26.49;88.32;100180.34;4800173;29;20056;-88
2023/08/15 07:23:48;;;;;;;0.65;0.60;;;;;;;26.45;90.89;100192.06;4782553;29;20348;-88
2023/08/15 07:26:14;;;;;;;2.13;1.33;;;;;;;26.64;88.74;100157.09;4774054;29;20037;-94
2023/08/15 07:28:39;;;;;;;0.77;0.77;;;;;;;26.80;86.05;100182.38;4771050;29;20046;-95
2023/08/15 07:31:05;;;;;;;1.27;1.08;;;;;;;26.63;83.67;100161.22;4785649;29;20074;-94
2023/08/15 07:33:31;;;;;;;1.15;1.05;;;;;;;26.97;85.24;100161.38;4770357;29;20194;-94
2023/08/15 07:35:57;;;;;;;1.08;0.90;;;;;;;27.12;83.55;100190.06;4767319;30;20050;-94
2023/08/15 07:38:22;;;;;;;2.50;0.85;;;;;;;27.35;79.42;100199.66;4766096;29;20486;-95
2023/08/15 07:40:48;;;;;;;1.40;1.27;;;;;;;27.35;79.47;100166.25;4780592;29;20047;-96
2023/08/15 07:43:14;;;;;;;5.65;1.55;;;;;;;27.44;77.07;100187.06;4783281;29;20055;-95
2023/08/15 07:45:39;;;;;;;0.88;0.88;;;;;;;27.35;79.79;100186.19;4761585;29;20066;-95
2023/08/15 07:48:05;;;;;;;2.30;1.50;;;;;;;27.55;81.02;100181.13;4770576;29;20059;-95
2023/08/15 07:50:31;;;;;;;1.63;0.98;;;;;;;27.85;81.05;100186.41;4768181;29;20115;-95
2023/08/15 07:53:00;;;;;;;6.88;1.45;;;;;;;27.97;81.45;100204.78;4782853;29;20146;-95
2023/08/15 07:55:27;;;;;;;1.00;1.00;;;;;;;28.09;78.58;100172.63;4755576;29;20524;-89
2023/08/15 07:57:53;;;;;;;1.50;1.08;;;;;;;28.30;75.54;100175.50;4778018;29;20055;-88
2023/08/15 08:00:18;;;;;;;0.95;0.90;;;;;;;28.42;75.10;100171.03;4799851;29;20055;-88
2023/08/15 08:02:44;;;;;;;1.85;1.55;;;;;;;28.27;76.34;100185.13;4780045;29;20047;-89
2023/08/15 08:05:11;;;;;;;0.77;0.77;;;;;;;28.34;77.76;100198.72;4761933;30;20566;-88
2023/08/15 08:07:39;;;;;;;0.75;0.75;;;;;;;28.69;74.88;100195.22;4776982;29;20407;-89
2023/08/15 08:10:05;;;;;;;1.63;1.33;;;;;;;28.65;73.29;100183.38;4761565;29;20557;-89
2023/08/15 08:12:31;;;;;;;1.25;0.90;;;;;;;28.75;70.73;100189.38;4792306;29;20094;-88
2023/08/15 08:14:57;;;;;;;1.52;1.25;;;;;;;28.99;70.82;100182.47;4783595;29;20647;-88
2023/08/15 08:17:23;;;;;;;0.80;0.80;;;;;;;29.01;67.73;100192.00;4750725;29;20101;-88
2023/08/15 08:19:48;;;;;;;1.85;1.40;;;;;;;29.01;64.65;100191.25;4756545;30;20429;-89
2023/08/15 08:22:14;;;;;;;0.77;0.70;;;;;;;28.94;59.33;100209.09;4785511;29;20054;-89
2023/08/15 08:24:40;;;;;;;1.13;1.05;;;;;;;29.20;59.36;100191.72;4797359;29;20062;-89
2023/08/15 08:27:05;;;;;;;1.75;1.30;;;;;;;29.37;57.57;100199.84;4789011;29;20042;-88
2023/08/15 08:29:31;;;;;;;0.75;0.75;;;;;;;29.54;54.22;100180.88;4788499;29;20053;-89
2023/08/15 08:31:57;;;;;;;1.30;1.20;;;;;;;29.60;51.79;100210.03;4784445;29;20138;-88
2023/08/15 08:34:22;;;;;;;1.92;1.17;;;;;;;29.50;52.56;100202.56;4786215;29;20046;-89
2023/08/15 08:36:48;;;;;;;0.82;0.82;;;;;;;29.55;49.50;100193.84;4780661;29;20133;-89
2023/08/15 08:39:13;;;;;;;1.02;1.00;;;;;;;29.19;50.08;100204.50;4754225;29;20135;-88
2023/08/15 08:41:39;;;;;;;1.17;0.85;;;;;;;28.84;49.79;100177.44;4770013;29;20103;-89
2023/08/15 08:44:05;;;;;;;2.25;1.73;;;;;;;28.76;49.15;100187.25;4782016;29;20055;-89
2023/08/15 08:46:31;;;;;;;1.23;0.95;;;;;;;29.15;50.05;100190.56;4783014;29;20111;-89
2023/08/15 08:48:58;;;;;;;0.90;0.90;;;;;;;29.43;50.31;100221.22;4786462;29;20478;-89
2023/08/15 08:51:24;;;;;;;0.70;0.70;;;;;;;29.14;51.01;100194.75;4769872;29;20055;-88
2023/08/15 08:53:50;;;;;;;0.30;0.30;;;;;;;29.51;52.39;100187.72;4764134;29;20050;-89
2023/08/15 08:56:18;;;;;;;1.30;1.20;;;;;;;29.79;51.38;100212.59;4769373;29;20051;-89
2023/08/15 08:58:49;;;;;;;2.13;1.50;;;;;;;29.58;53.06;100218.41;4772210;29;20043;-89
2023/08/15 09:01:15;;;;;;;0.90;0.90;;;;;;;29.75;56.32;100214.28;4772169;30;20051;-90
2023/08/15 09:03:40;;;;;;;1.50;1.08;;;;;;;29.75;55.40;100206.47;4781436;30;20379;-89
2023/08/15 09:06:06;;;;;;;1.10;0.95;;;;;;;29.50;59.05;100200.47;4783956;29;20062;-89
2023/08/15 09:08:32;;;;;;;0.93;0.80;;;;;;;29.33;59.44;100185.91;4775512;29;20051;-87
2023/08/15 09:10:58;;;;;;;1.50;1.40;;;;;;;29.38;60.25;100213.56;4786496;29;20054;-89
2023/08/15 09:13:23;;;;;;;1.33;1.17;;;;;;;29.80;61.65;100207.63;4800714;29;20054;-87
2023/08/15 09:15:59;;;;;;;0.90;0.88;;;;;;;30.35;57.97;100211.56;4797929;29;20042;-90
2023/08/15 09:18:32;;;;;;;0.73;0.70;;;;;;;30.37;53.99;100208.88;4772187;29;20054;-89
2023/08/15 09:20:58;;;;;;;1.33;0.70;;;;;;;30.71;55.45;100188.50;4790898;29;20062;-89
2023/08/15 09:23:24;;;;;;;2.15;1.65;;;;;;;30.89;53.42;100215.22;4772220;29;20494;-89
2023/08/15 09:25:53;;;;;;;3.03;1.85;;;;;;;30.55;54.29;100199.19;4768867;29;20054;-87
2023/08/15 09:28:19;;;;;;;0.93;0.88;;;;;;;30.31;57.11;100196.09;4764720;29;20065;-89
2023/08/15 09:30:54;;;;;;;1.30;1.20;;;;;;;30.81;56.60;100203.00;4786216;29;20074;-89
2023/08/15 09:33:20;;;;;;;2.38;1.15;;;;;;;31.20;53.94;100202.38;4783714;29;20042;-89
2023/08/15 09:35:45;;;;;;;3.00;1.70;;;;;;;31.34;52.01;100197.91;4769502;29;20581;-88
2023/08/15 09:38:11;;;;;;;1.85;1.38;;;;;;;31.50;51.58;100181.44;4772455;29;20485;-89
2023/08/15 09:40:37;;;;;;;1.73;1.42;;;;;;;31.44;48.57;100203.81;4787388;29;20051;-88
2023/08/15 09:43:03;;;;;;;1.05;1.02;;;;;;;31.27;46.33;100192.97;4787138;29;20034;-89
2023/08/15 09:45:28;;;;;;;1.17;0.95;;;;;;;31.33;47.72;100187.81;4780274;30;20059;-89
2023/08/15 09:47:54;;;;;;;1.27;1.17;;;;;;;31.71;48.14;100184.00;4763594;29;20778;-89
2023/08/15 09:50:21;;;;;;;1.35;1.20;;;;;;;31.94;46.83;100201.88;4768983;30;20059;-88
2023/08/15 09:52:47;;;;;;;3.03;1.80;;;;;;;32.16;47.34;100175.16;4776823;29;20047;-89
2023/08/15 09:55:14;;;;;;;1.33;1.20;;;;;;;32.46;46.22;100187.75;4783816;29;20063;-88
2023/08/15 09:57:41;;;;;;;1.02;0.93;;;;;;;32.07;44.41;100189.34;4783684;29;20443;-88
2023/08/15 10:00:17;;;;;;;1.33;1.20;;;;;;;32.26;44.28;100178.91;4768243;30;20497;-88
2023/08/15 10:02:48;;;;;;;1.08;0.98;;;;;;;32.73;45.10;100186.56;4766257;29;20051;-89
2023/08/15 10:05:20;;;;;;;2.08;0.68;;;;;;;33.00;41.57;100180.91;4765246;30;20247;-89
2023/08/15 10:07:46;;;;;;;1.13;1.08;;;;;;;32.94;39.06;100171.78;4784608;29;20047;-88
2023/08/15 10:10:13;;;;;;;0.60;0.60;;;;;;;32.99;38.32;100181.50;4768359;30;20074;-88
2023/08/15 10:12:40;;;;;;;3.67;1.38;;;;;;;33.02;38.95;100178.22;4783521;29;20047;-88
2023/08/15 10:15:07;;;;;;;2.03;1.05;;;;;;;33.23;40.31;100175.72;4783112;29;20461;-88
2023/08/15 10:17:33;;;;;;;1.77;1.13;;;;;;;33.37;38.83;100183.97;4777059;29;20091;-88
2023/08/15 10:20:09;;;;;;;0.82;0.82;;;;;;;33.34;38.16;100167.91;4786440;29;20046;-89
2023/08/15 10:22:35;;;;;;;0.70;0.70;;;;;;;33.44;38.50;100168.75;4761888;29;20039;-89
2023/08/15 10:25:24;;;;;;;0.98;0.95;;;;;;;33.40;38.00;100185.66;4783103;29;20070;-89
2023/08/15 10:27:52;;;;;;;1.10;1.08;;;;;;;33.48;39.20;100163.31;4792642;29;20574;-89
2023/08/15 10:30:30;;;;;;;1.67;1.58;;;;;;;33.51;38.31;100153.50;4802179;29;20082;-88
2023/08/15 10:33:02;;;;;;;1.60;1.50;;;;;;;33.58;37.64;100175.63;4795036;29;20513;-89
2023/08/15 10:35:32;;;;;;;1.27;1.17;;;;;;;33.74;36.26;100179.84;4786324;29;20050;-89
2023/08/15 10:37:58;;;;;;;1.30;1.20;;;;;;;33.64;36.36;100167.53;4786151;29;20062;-88
2023/08/15 10:40:27;;;;;;;1.05;0.95;;;;;;;33.39;35.04;100164.00;4802195;29;20047;-89
2023/08/15 10:42:56;;;;;;;1.27;1.17;;;;;;;33.34;35.65;100179.41;4785629;29;20062;-88
2023/08/15 10:45:23;;;;;;;1.08;1.05;;;;;;;33.06;36.06;100172.81;4802245;29;20043;-88
2023/08/15 10:47:49;;;;;;;1.52;1.42;;;;;;;33.01;36.16;100159.44;4784837;29;20051;-89
2023/08/15 10:50:15;;;;;;;0.90;0.80;;;;;;;33.19;36.13;100175.38;4785799;29;20042;-88
2023/08/15 10:52:41;;;;;;;0.75;0.75;;;;;;;33.42;36.57;100157.06;4785768;29;20058;-88
2023/08/15 10:55:07;;;;;;;2.03;0.77;;;;;;;33.86;35.94;100163.56;4768108;30;20545;-88
2023/08/15 10:57:33;;;;;;;1.27;1.13;;;;;;;33.71;35.59;100164.56;4782726;29;20437;-88
2023/08/15 10:59:58;;;;;;;1.10;0.82;;;;;;;33.54;35.63;100181.06;4767443;30;20051;-89
2023/08/15 11:02:24;;;;;;;1.17;1.10;;;;;;;33.77;35.39;100178.66;4799745;29;20081;-88
2023/08/15 11:04:49;;;;;;;1.67;1.10;;;;;;;33.69;35.74;100158.63;4767694;30;20583;-88
2023/08/15 11:07:25;;;;;;;1.45;1.35;;;;;;;34.02;35.33;100172.72;4769308;30;20074;-88
2023/08/15 11:09:51;;;;;;;0.63;0.63;;;;;;;33.97;36.67;100165.88;4778407;29;20097;-89
2023/08/15 11:12:17;;;;;;;1.08;0.98;;;;;;;34.18;36.22;100174.81;4782656;29;20087;-88
2023/08/15 11:14:42;;;;;;;1.17;1.08;;;;;;;33.92;36.05;100178.47;4779739;29;20064;-88
2023/08/15 11:17:09;;;;;;;1.10;1.02;;;;;;;34.10;36.44;100182.00;4767196;29;20566;-89
2023/08/15 11:19:34;;;;;;;1.30;1.20;;;;;;;33.73;36.88;100175.44;4782660;29;20077;-88